Time;durP1;ratioP1;P1;durP2;ratioP2;P2;SDS_P1;SDS_P2;PMS_P1;PMS_P2;Temp;Humidity;BMP_temperature;BMP_pressure;BME280_temperature;BME280_humidity;BME280_pressure;Samples;Min_cycle;Max_cycle;Signal;HPM_P1;HPM_P2
2021/12/06 00:02:12;;;;;;;1.10;0.93;;;;;;;;;;7384278;19;20350;-70
2021/12/06 00:04:38;;;;;;;1.77;0.93;;;;;;;;;;7388205;19;20424;-70
2021/12/06 00:07:08;;;;;;;5.20;1.55;;;;;;;;;;7389616;19;20018;-70
2021/12/06 00:09:35;;;;;;;1.45;0.90;;;;;;;;;;7387993;19;20316;-70
2021/12/06 00:12:03;;;;;;;1.48;0.85;;;;;;;;;;7387160;19;20011;-70
2021/12/06 00:14:31;;;;;;;1.92;1.00;;;;;;;;;;7388339;19;20002;-70
2021/12/06 00:16:59;;;;;;;1.17;0.90;;;;;;;;;;7385851;19;20018;-70
2021/12/06 00:19:25;;;;;;;1.60;1.10;;;;;;;;;;7384508;19;20364;-70
2021/12/06 00:21:51;;;;;;;2.40;1.23;;;;;;;;;;7386958;19;20006;-70
2021/12/06 00:24:16;;;;;;;0.93;0.80;;;;;;;;;;7385996;19;20313;-70
2021/12/06 00:26:42;;;;;;;1.80;0.95;;;;;;;;;;7387682;19;20025;-70
2021/12/06 00:29:08;;;;;;;0.63;0.60;;;;;;;;;;7386047;19;20028;-70
2021/12/06 00:31:34;;;;;;;0.80;0.75;;;;;;;;;;7387253;19;20049;-70
2021/12/06 00:34:05;;;;;;;1.63;1.00;;;;;;;;;;7388037;19;20457;-70
2021/12/06 00:36:33;;;;;;;1.40;0.63;;;;;;;;;;7383575;19;20020;-70
2021/12/06 00:39:00;;;;;;;1.83;0.93;;;;;;;;;;7386049;19;20007;-70
2021/12/06 00:41:26;;;;;;;0.98;0.82;;;;;;;;;;7384954;19;20009;-70
2021/12/06 00:43:51;;;;;;;0.82;0.52;;;;;;;;;;7383454;19;20002;-70
2021/12/06 00:46:18;;;;;;;1.10;0.70;;;;;;;;;;7386256;19;20397;-70
2021/12/06 00:48:43;;;;;;;0.70;0.65;;;;;;;;;;7385453;19;20005;-70
2021/12/06 00:51:11;;;;;;;1.05;0.80;;;;;;;;;;7386949;19;20016;-70
2021/12/06 00:53:36;;;;;;;1.55;0.82;;;;;;;;;;7386025;19;20010;-70
2021/12/06 00:56:02;;;;;;;1.45;0.90;;;;;;;;;;7386200;19;20462;-70
2021/12/06 00:58:27;;;;;;;2.35;1.58;;;;;;;;;;7383741;19;20007;-70
2021/12/06 01:00:54;;;;;;;2.35;1.08;;;;;;;;;;7384647;19;20009;-70
2021/12/06 01:03:24;;;;;;;1.08;0.73;;;;;;;;;;7385581;19;20034;-70
2021/12/06 01:05:49;;;;;;;2.35;1.08;;;;;;;;;;7387306;19;20012;-70
2021/12/06 01:08:16;;;;;;;2.55;1.25;;;;;;;;;;7387523;19;20526;-70
2021/12/06 01:10:42;;;;;;;1.73;1.40;;;;;;;;;;7385200;19;20010;-70
2021/12/06 01:13:07;;;;;;;3.58;1.55;;;;;;;;;;7384876;19;20013;-70
2021/12/06 01:15:36;;;;;;;2.20;1.27;;;;;;;;;;7386780;19;20536;-70
2021/12/06 01:18:04;;;;;;;2.35;1.40;;;;;;;;;;7385048;19;20058;-70
2021/12/06 01:20:32;;;;;;;3.30;1.40;;;;;;;;;;7384856;19;20006;-70
2021/12/06 01:23:08;;;;;;;2.15;1.58;;;;;;;;;;7387970;19;20002;-70
2021/12/06 01:25:45;;;;;;;2.35;1.83;;;;;;;;;;7384679;19;19998;-70
2021/12/06 01:31:04;;;;;;;1.88;1.70;;;;;;;;;;7383374;19;20007;-70
2021/12/06 01:33:40;;;;;;;2.90;1.80;;;;;;;;;;7386145;19;19999;-70
2021/12/06 01:41:41;;;;;;;4.63;2.10;;;;;;;;;;7385525;19;20383;-70
2021/12/06 01:44:36;;;;;;;2.22;1.83;;;;;;;;;;7384371;19;20002;-70
2021/12/06 01:47:17;;;;;;;3.08;2.30;;;;;;;;;;7384640;19;20018;-70
2021/12/06 01:49:47;;;;;;;2.83;1.63;;;;;;;;;;7382958;19;20015;-70
2021/12/06 01:52:17;;;;;;;2.33;1.92;;;;;;;;;;7385162;19;20334;-70
2021/12/06 01:54:43;;;;;;;2.33;1.75;;;;;;;;;;7383682;19;20026;-70
2021/12/06 01:57:08;;;;;;;2.58;2.17;;;;;;;;;;7384972;19;20019;-70
2021/12/06 01:59:34;;;;;;;2.38;2.17;;;;;;;;;;7382974;19;20003;-70
2021/12/06 02:02:00;;;;;;;3.78;2.03;;;;;;;;;;7381780;19;20002;-70
2021/12/06 02:04:28;;;;;;;3.20;2.45;;;;;;;;;;7383411;19;20002;-70
2021/12/06 02:06:54;;;;;;;2.67;1.98;;;;;;;;;;7383678;19;20252;-70
2021/12/06 02:09:21;;;;;;;2.80;2.20;;;;;;;;;;7384776;19;20495;-70
2021/12/06 02:11:47;;;;;;;2.92;2.50;;;;;;;;;;7382225;19;20007;-70
2021/12/06 02:14:42;;;;;;;4.70;2.63;;;;;;;;;;7384714;19;20023;-70
2021/12/06 02:17:32;;;;;;;2.65;2.00;;;;;;;;;;7384717;19;20002;-70
2021/12/06 02:20:04;;;;;;;2.38;2.17;;;;;;;;;;7383239;19;20028;-70
2021/12/06 02:22:33;;;;;;;3.25;2.05;;;;;;;;;;7385695;19;19995;-70
2021/12/06 02:25:00;;;;;;;2.67;2.00;;;;;;;;;;7386488;19;20342;-70
2021/12/06 02:27:28;;;;;;;2.42;1.98;;;;;;;;;;7391871;19;20491;-71
2021/12/06 02:29:56;;;;;;;3.67;2.30;;;;;;;;;;7389975;19;20011;-70
2021/12/06 02:32:22;;;;;;;2.90;2.33;;;;;;;;;;7391642;19;20003;-70
2021/12/06 02:34:51;;;;;;;2.58;2.10;;;;;;;;;;7390937;19;20012;-70
2021/12/06 02:37:21;;;;;;;3.85;2.47;;;;;;;;;;7390588;19;19995;-70
2021/12/06 02:39:46;;;;;;;2.38;2.17;;;;;;;;;;7390822;19;20011;-70
2021/12/06 02:42:15;;;;;;;4.32;2.60;;;;;;;;;;7391742;19;20002;-70
2021/12/06 02:44:41;;;;;;;5.20;2.63;;;;;;;;;;7391230;19;20034;-70
2021/12/06 02:47:07;;;;;;;2.45;1.60;;;;;;;;;;7390949;19;20472;-70
2021/12/06 02:49:32;;;;;;;3.50;2.22;;;;;;;;;;7386683;19;20010;-70
2021/12/06 02:51:58;;;;;;;2.60;2.28;;;;;;;;;;7387002;19;20022;-70
2021/12/06 02:54:25;;;;;;;3.22;2.17;;;;;;;;;;7390622;19;20086;-70
2021/12/06 02:56:55;;;;;;;4.10;3.08;;;;;;;;;;7389045;19;19998;-70
2021/12/06 02:59:25;;;;;;;2.88;2.45;;;;;;;;;;7389288;19;20006;-70
2021/12/06 03:01:57;;;;;;;3.20;2.42;;;;;;;;;;7389173;19;20003;-70
2021/12/06 03:04:23;;;;;;;2.88;2.35;;;;;;;;;;7392156;19;20391;-70
2021/12/06 03:06:53;;;;;;;3.28;2.42;;;;;;;;;;7390344;19;20013;-70
2021/12/06 03:09:21;;;;;;;2.70;2.35;;;;;;;;;;7387866;19;20054;-70
2021/12/06 03:11:53;;;;;;;3.90;2.90;;;;;;;;;;7388074;19;20006;-70
2021/12/06 03:14:27;;;;;;;4.38;2.92;;;;;;;;;;7388586;19;20145;-70
2021/12/06 03:16:55;;;;;;;3.70;2.92;;;;;;;;;;7389088;19;20007;-70
2021/12/06 03:19:21;;;;;;;4.10;3.05;;;;;;;;;;7388836;19;20447;-70
2021/12/06 03:21:46;;;;;;;5.15;3.20;;;;;;;;;;7385744;19;20106;-70
2021/12/06 03:24:12;;;;;;;8.70;4.35;;;;;;;;;;7388680;19;20337;-70
2021/12/06 03:26:39;;;;;;;5.15;3.75;;;;;;;;;;7389349;19;20074;-70
2021/12/06 03:29:06;;;;;;;4.97;3.22;;;;;;;;;;7387299;19;20010;-71
2021/12/06 03:31:31;;;;;;;5.38;3.65;;;;;;;;;;7386660;19;20040;-70
2021/12/06 03:33:58;;;;;;;6.22;3.60;;;;;;;;;;7389556;19;20010;-70
2021/12/06 03:36:27;;;;;;;4.97;3.35;;;;;;;;;;7389999;19;20286;-70
2021/12/06 03:38:55;;;;;;;6.50;4.18;;;;;;;;;;7387241;19;20011;-70
2021/12/06 03:41:22;;;;;;;7.18;3.13;;;;;;;;;;7384220;19;20058;-70
2021/12/06 03:43:49;;;;;;;5.70;3.95;;;;;;;;;;7387584;19;20515;-70
2021/12/06 03:46:17;;;;;;;6.75;3.85;;;;;;;;;;7387774;19;20103;-70
2021/12/06 03:48:42;;;;;;;5.00;3.20;;;;;;;;;;7388946;19;20044;-70
2021/12/06 03:51:08;;;;;;;5.50;3.53;;;;;;;;;;7384987;19;20469;-70
2021/12/06 03:53:33;;;;;;;4.03;2.75;;;;;;;;;;7388181;19;20028;-70
2021/12/06 03:56:00;;;;;;;6.15;4.28;;;;;;;;;;7389353;19;20019;-70
2021/12/06 03:58:26;;;;;;;5.55;3.58;;;;;;;;;;7383943;19;20031;-70
2021/12/06 04:00:51;;;;;;;5.25;3.75;;;;;;;;;;7384373;19;20010;-70
2021/12/06 04:03:19;;;;;;;7.90;4.45;;;;;;;;;;7385121;19;20006;-70
2021/12/06 04:05:44;;;;;;;5.60;3.72;;;;;;;;;;7385006;19;20010;-70
2021/12/06 04:08:09;;;;;;;13.40;8.10;;;;;;;;;;7386396;19;20448;-70
2021/12/06 04:10:35;;;;;;;13.25;7.53;;;;;;;;;;7386228;19;20024;-70
2021/12/06 04:13:00;;;;;;;8.05;4.80;;;;;;;;;;7389557;19;20010;-70
2021/12/06 04:15:29;;;;;;;5.65;4.03;;;;;;;;;;7390014;19;20006;-71
2021/12/06 04:17:56;;;;;;;6.57;3.92;;;;;;;;;;7388090;19;20459;-70
2021/12/06 04:20:22;;;;;;;8.48;4.50;;;;;;;;;;7386161;19;20378;-70
2021/12/06 04:22:47;;;;;;;8.48;5.20;;;;;;;;;;7386323;19;20066;-70
2021/12/06 04:25:16;;;;;;;8.07;4.68;;;;;;;;;;7387826;19;20058;-69
2021/12/06 04:27:41;;;;;;;9.18;4.97;;;;;;;;;;7387193;19;20007;-70
2021/12/06 04:30:09;;;;;;;7.75;4.18;;;;;;;;;;7380863;19;20517;-70
2021/12/06 04:32:34;;;;;;;10.23;5.03;;;;;;;;;;7383137;19;20010;-70
2021/12/06 04:35:00;;;;;;;8.73;4.57;;;;;;;;;;7384134;19;20003;-70
2021/12/06 04:37:26;;;;;;;6.53;4.18;;;;;;;;;;7383128;19;20030;-70
2021/12/06 04:39:51;;;;;;;6.45;4.03;;;;;;;;;;7384196;19;20010;-70
2021/12/06 04:42:20;;;;;;;6.20;3.60;;;;;;;;;;7385515;19;20470;-70
2021/12/06 04:44:46;;;;;;;9.25;4.55;;;;;;;;;;7385719;19;20006;-70
2021/12/06 04:47:12;;;;;;;6.80;4.47;;;;;;;;;;7383825;19;20003;-70
2021/12/06 04:49:38;;;;;;;7.07;3.97;;;;;;;;;;7382958;19;20149;-70
2021/12/06 04:52:07;;;;;;;6.25;4.32;;;;;;;;;;7385969;19;20170;-70
2021/12/06 04:54:36;;;;;;;7.72;4.53;;;;;;;;;;7385237;19;20019;-70
2021/12/06 04:57:13;;;;;;;7.88;4.60;;;;;;;;;;7378412;19;20074;-71
2021/12/06 04:59:42;;;;;;;5.78;3.92;;;;;;;;;;7376817;19;20081;-70
2021/12/06 05:02:15;;;;;;;7.38;4.40;;;;;;;;;;7385831;19;20017;-70
2021/12/06 05:04:47;;;;;;;7.80;4.38;;;;;;;;;;7384134;19;20619;-70
2021/12/06 05:07:20;;;;;;;7.70;4.40;;;;;;;;;;7383127;19;20530;-70
2021/12/06 05:09:46;;;;;;;9.07;4.75;;;;;;;;;;7384161;19;20364;-70
2021/12/06 05:12:15;;;;;;;7.78;4.80;;;;;;;;;;7384363;19;20045;-70
2021/12/06 05:14:41;;;;;;;8.57;4.55;;;;;;;;;;7385147;19;20007;-70
2021/12/06 05:17:07;;;;;;;6.95;4.68;;;;;;;;;;7384512;19;20332;-70
2021/12/06 05:19:32;;;;;;;8.40;4.78;;;;;;;;;;7385229;19;20066;-70
2021/12/06 05:21:58;;;;;;;8.70;5.35;;;;;;;;;;7383408;19;20456;-70
2021/12/06 05:24:23;;;;;;;10.38;5.13;;;;;;;;;;7383165;19;20002;-70
2021/12/06 05:26:49;;;;;;;7.78;4.80;;;;;;;;;;7383149;19;20003;-70
2021/12/06 05:29:19;;;;;;;8.93;5.10;;;;;;;;;;7383411;19;20034;-70
2021/12/06 05:31:45;;;;;;;8.38;4.63;;;;;;;;;;7381408;19;20011;-70
2021/12/06 05:34:18;;;;;;;8.63;5.10;;;;;;;;;;7384800;19;20010;-70
2021/12/06 05:36:44;;;;;;;7.10;4.55;;;;;;;;;;7382679;19;20023;-70
2021/12/06 05:39:10;;;;;;;8.40;4.90;;;;;;;;;;7381180;19;20007;-70
2021/12/06 05:41:37;;;;;;;9.13;5.40;;;;;;;;;;7380267;19;20059;-70
2021/12/06 05:44:03;;;;;;;8.93;5.00;;;;;;;;;;7382268;19;20010;-70
2021/12/06 05:46:28;;;;;;;10.80;5.30;;;;;;;;;;7383116;19;20006;-70
2021/12/06 05:48:54;;;;;;;7.35;4.82;;;;;;;;;;7383066;19;20127;-70
2021/12/06 05:51:19;;;;;;;7.78;4.65;;;;;;;;;;7384419;19;20012;-70
2021/12/06 05:53:45;;;;;;;9.23;5.38;;;;;;;;;;7386213;19;20002;-70
2021/12/06 05:56:11;;;;;;;8.57;5.28;;;;;;;;;;7383065;19;20035;-70
2021/12/06 05:58:37;;;;;;;8.07;4.80;;;;;;;;;;7381495;19;20023;-69
2021/12/06 06:01:04;;;;;;;8.38;5.18;;;;;;;;;;7390966;19;20038;-69
2021/12/06 06:03:30;;;;;;;9.70;5.25;;;;;;;;;;7391364;19;20003;-70
2021/12/06 06:05:55;;;;;;;9.20;5.10;;;;;;;;;;7392582;19;20014;-70
2021/12/06 06:08:21;;;;;;;9.00;5.18;;;;;;;;;;7391163;19;20006;-70
2021/12/06 06:10:47;;;;;;;8.98;4.88;;;;;;;;;;7388615;19;20003;-69
2021/12/06 06:13:15;;;;;;;7.55;5.15;;;;;;;;;;7390589;19;20856;-70
2021/12/06 06:15:40;;;;;;;10.73;5.10;;;;;;;;;;7388749;19;20011;-70
2021/12/06 06:18:06;;;;;;;8.95;5.57;;;;;;;;;;7387455;19;20002;-70
2021/12/06 06:20:40;;;;;;;9.73;5.25;;;;;;;;;;7390219;19;20039;-70
2021/12/06 06:23:06;;;;;;;10.57;5.65;;;;;;;;;;7388725;19;20039;-70
2021/12/06 06:25:32;;;;;;;8.57;5.18;;;;;;;;;;7391390;19;20495;-70
2021/12/06 06:27:57;;;;;;;10.32;5.68;;;;;;;;;;7387274;19;19999;-70
2021/12/06 06:30:23;;;;;;;9.65;5.05;;;;;;;;;;7387555;19;20009;-70
2021/12/06 06:32:49;;;;;;;8.48;5.15;;;;;;;;;;7391919;19;20312;-70
2021/12/06 06:35:17;;;;;;;7.97;4.93;;;;;;;;;;7389551;19;20014;-70
2021/12/06 06:37:43;;;;;;;7.63;5.07;;;;;;;;;;7387240;19;20325;-70
2021/12/06 06:40:09;;;;;;;12.25;6.38;;;;;;;;;;7385983;19;20446;-69
2021/12/06 06:42:35;;;;;;;12.73;6.90;;;;;;;;;;7392523;19;20038;-69
2021/12/06 06:45:02;;;;;;;12.68;6.72;;;;;;;;;;7389526;19;20078;-70
2021/12/06 06:47:27;;;;;;;12.45;6.85;;;;;;;;;;7390431;19;20007;-70
2021/12/06 06:49:53;;;;;;;10.98;6.20;;;;;;;;;;7389436;19;20017;-70
2021/12/06 06:52:18;;;;;;;12.43;6.03;;;;;;;;;;7387604;19;20456;-70
2021/12/06 06:54:44;;;;;;;12.88;6.43;;;;;;;;;;7390952;19;20014;-70
2021/12/06 06:57:09;;;;;;;10.63;5.95;;;;;;;;;;7389376;19;20018;-70
2021/12/06 06:59:35;;;;;;;9.25;5.85;;;;;;;;;;7386392;19;20004;-70
2021/12/06 07:02:01;;;;;;;12.10;5.82;;;;;;;;;;7386952;19;20461;-71
2021/12/06 07:04:27;;;;;;;9.80;5.70;;;;;;;;;;7390841;19;20022;-71
2021/12/06 07:06:52;;;;;;;12.90;6.72;;;;;;;;;;7387899;19;20892;-71
2021/12/06 07:09:18;;;;;;;13.45;7.20;;;;;;;;;;7385509;19;19998;-71
2021/12/06 07:11:45;;;;;;;13.50;7.05;;;;;;;;;;7387963;19;20014;-73
2021/12/06 07:14:15;;;;;;;11.05;6.38;;;;;;;;;;7388205;19;20023;-72
2021/12/06 07:16:43;;;;;;;11.35;6.05;;;;;;;;;;7386636;19;20017;-72
2021/12/06 07:19:08;;;;;;;15.70;7.30;;;;;;;;;;7385936;19;20034;-72
2021/12/06 07:21:35;;;;;;;14.25;7.25;;;;;;;;;;7382287;19;20042;-72
2021/12/06 07:24:01;;;;;;;13.65;7.40;;;;;;;;;;7384287;19;20010;-72
2021/12/06 07:26:26;;;;;;;10.35;6.22;;;;;;;;;;7385944;19;20006;-72
2021/12/06 07:28:54;;;;;;;11.65;6.75;;;;;;;;;;7380089;19;20019;-72
2021/12/06 07:31:21;;;;;;;15.70;7.85;;;;;;;;;;7385723;19;20123;-72
2021/12/06 07:33:48;;;;;;;12.25;6.90;;;;;;;;;;7388454;19;20294;-72
2021/12/06 07:36:13;;;;;;;13.38;7.13;;;;;;;;;;7390099;19;20006;-72
2021/12/06 07:38:39;;;;;;;18.33;6.30;;;;;;;;;;7389213;19;19995;-72
2021/12/06 07:41:12;;;;;;;17.35;8.25;;;;;;;;;;7388969;19;19999;-72
2021/12/06 07:43:38;;;;;;;15.13;8.18;;;;;;;;;;7386445;19;20367;-72
2021/12/06 07:46:05;;;;;;;13.50;7.75;;;;;;;;;;7386885;19;20007;-72
2021/12/06 07:48:31;;;;;;;20.88;8.52;;;;;;;;;;7386926;19;20010;-72
2021/12/06 07:50:59;;;;;;;18.05;8.82;;;;;;;;;;7384327;19;20448;-72
2021/12/06 07:53:25;;;;;;;15.55;7.43;;;;;;;;;;7389717;19;20017;-72
2021/12/06 07:55:51;;;;;;;16.60;8.13;;;;;;;;;;7387142;19;20009;-72
2021/12/06 07:58:16;;;;;;;17.17;9.00;;;;;;;;;;7383004;19;19990;-72
2021/12/06 08:00:45;;;;;;;19.20;9.85;;;;;;;;;;7385068;19;20046;-72
2021/12/06 08:03:12;;;;;;;18.77;8.70;;;;;;;;;;7383909;19;20003;-72
2021/12/06 08:05:39;;;;;;;20.58;9.00;;;;;;;;;;7385469;19;20058;-72
2021/12/06 08:08:11;;;;;;;18.23;9.32;;;;;;;;;;7387240;19;20010;-73
2021/12/06 08:10:40;;;;;;;18.00;8.70;;;;;;;;;;7388446;19;20007;-72
2021/12/06 08:13:06;;;;;;;17.83;8.38;;;;;;;;;;7387466;19;20034;-72
2021/12/06 08:15:32;;;;;;;19.58;9.70;;;;;;;;;;7386074;19;20019;-72
2021/12/06 08:17:58;;;;;;;19.92;8.85;;;;;;;;;;7384330;19;20031;-72
2021/12/06 08:20:25;;;;;;;29.05;10.70;;;;;;;;;;7386322;19;19998;-72
2021/12/06 08:22:51;;;;;;;21.25;9.70;;;;;;;;;;7386356;19;19998;-72
2021/12/06 08:25:17;;;;;;;20.85;9.25;;;;;;;;;;7383036;19;20007;-73
2021/12/06 08:27:43;;;;;;;22.67;9.55;;;;;;;;;;7382525;19;20110;-72
2021/12/06 08:30:12;;;;;;;18.25;9.05;;;;;;;;;;7381233;19;20014;-74
2021/12/06 08:32:37;;;;;;;17.50;8.80;;;;;;;;;;7387120;19;20017;-72
2021/12/06 08:35:04;;;;;;;22.00;10.65;;;;;;;;;;7385974;19;19999;-72
2021/12/06 08:37:29;;;;;;;20.05;8.98;;;;;;;;;;7388139;19;20807;-72
2021/12/06 08:39:55;;;;;;;21.40;9.90;;;;;;;;;;7386355;19;20023;-73
2021/12/06 08:42:20;;;;;;;21.67;10.48;;;;;;;;;;7387727;19;19999;-72
2021/12/06 08:44:46;;;;;;;20.45;8.80;;;;;;;;;;7388444;19;20011;-72
2021/12/06 08:47:14;;;;;;;20.75;9.98;;;;;;;;;;7388842;19;20006;-72
2021/12/06 08:49:39;;;;;;;19.20;9.13;;;;;;;;;;7388065;19;20002;-72
2021/12/06 08:52:05;;;;;;;24.20;10.43;;;;;;;;;;7388029;19;20010;-72
2021/12/06 08:54:31;;;;;;;22.25;9.05;;;;;;;;;;7386904;19;20061;-71
2021/12/06 08:56:59;;;;;;;25.33;11.90;;;;;;;;;;7385909;19;20010;-72
2021/12/06 08:59:25;;;;;;;23.05;11.23;;;;;;;;;;7383385;19;20230;-71
2021/12/06 09:01:54;;;;;;;21.00;9.60;;;;;;;;;;7383024;19;20014;-71
2021/12/06 09:04:20;;;;;;;22.23;9.63;;;;;;;;;;7386137;19;20129;-72
2021/12/06 09:06:50;;;;;;;23.92;11.60;;;;;;;;;;7385142;19;20456;-72
2021/12/06 09:09:16;;;;;;;22.77;11.10;;;;;;;;;;7386007;19;20062;-72
2021/12/06 09:11:44;;;;;;;23.83;11.85;;;;;;;;;;7385494;19;20007;-72
2021/12/06 09:14:10;;;;;;;19.85;10.80;;;;;;;;;;7386361;19;20423;-72
2021/12/06 09:16:37;;;;;;;23.83;11.68;;;;;;;;;;7387867;19;20010;-72
2021/12/06 09:19:05;;;;;;;23.38;11.48;;;;;;;;;;7382943;19;20488;-72
2021/12/06 09:21:30;;;;;;;25.17;12.02;;;;;;;;;;7387241;19;20031;-72
2021/12/06 09:24:00;;;;;;;25.85;11.60;;;;;;;;;;7386499;19;20010;-72
2021/12/06 09:26:26;;;;;;;26.75;11.20;;;;;;;;;;7385804;19;20006;-72
2021/12/06 09:28:51;;;;;;;23.30;10.73;;;;;;;;;;7381972;19;20010;-72
2021/12/06 09:31:19;;;;;;;29.35;13.13;;;;;;;;;;7380868;19;20336;-72
2021/12/06 09:33:45;;;;;;;21.88;9.63;;;;;;;;;;7387696;19;20013;-73
2021/12/06 09:36:12;;;;;;;20.88;10.40;;;;;;;;;;7391342;19;20007;-72
2021/12/06 09:38:39;;;;;;;31.60;12.65;;;;;;;;;;7388019;19;20034;-72
2021/12/06 09:41:11;;;;;;;24.88;11.38;;;;;;;;;;7386224;19;20010;-73
2021/12/06 09:43:39;;;;;;;28.60;10.63;;;;;;;;;;7390811;19;20010;-72
2021/12/06 09:46:06;;;;;;;40.40;17.27;;;;;;;;;;7390517;19;20123;-72
2021/12/06 09:48:32;;;;;;;22.52;10.75;;;;;;;;;;7391907;19;20006;-72
2021/12/06 09:51:03;;;;;;;31.83;13.57;;;;;;;;;;7392750;19;20006;-72
2021/12/06 09:53:30;;;;;;;30.67;12.75;;;;;;;;;;7391420;19;20148;-72
2021/12/06 09:56:01;;;;;;;20.38;10.13;;;;;;;;;;7392553;19;20320;-72
2021/12/06 09:58:30;;;;;;;17.73;9.20;;;;;;;;;;7389736;19;20025;-72
2021/12/06 10:00:59;;;;;;;21.27;10.43;;;;;;;;;;7388114;19;20002;-72
2021/12/06 10:03:28;;;;;;;21.98;11.40;;;;;;;;;;7392496;19;20018;-72
2021/12/06 10:06:01;;;;;;;15.88;8.27;;;;;;;;;;7392661;19;20126;-72
2021/12/06 10:08:27;;;;;;;17.52;9.30;;;;;;;;;;7391582;19;20010;-72
2021/12/06 10:10:52;;;;;;;15.68;9.38;;;;;;;;;;7390360;19;20456;-72
2021/12/06 10:13:18;;;;;;;19.60;8.13;;;;;;;;;;7392879;19;20070;-72
2021/12/06 10:15:43;;;;;;;21.40;10.95;;;;;;;;;;7389276;19;20294;-72
2021/12/06 10:18:10;;;;;;;16.77;9.60;;;;;;;;;;7388572;19;20003;-72
2021/12/06 10:20:36;;;;;;;16.48;8.73;;;;;;;;;;7390260;19;20338;-72
2021/12/06 10:23:01;;;;;;;20.05;10.00;;;;;;;;;;7392761;19;20082;-72
2021/12/06 10:25:43;;;;;;;15.15;8.18;;;;;;;;;;7392171;19;20006;-73
2021/12/06 10:28:10;;;;;;;18.58;8.50;;;;;;;;;;7389517;19;20014;-76
2021/12/06 10:30:42;;;;;;;18.73;9.38;;;;;;;;;;7388328;19;20007;-72
2021/12/06 10:33:13;;;;;;;16.27;8.38;;;;;;;;;;7388797;19;20074;-72
2021/12/06 10:35:41;;;;;;;16.60;8.95;;;;;;;;;;7391972;19;20037;-74
2021/12/06 10:38:06;;;;;;;18.48;8.27;;;;;;;;;;7386625;19;20055;-74
2021/12/06 10:40:35;;;;;;;15.63;8.27;;;;;;;;;;7386769;19;20002;-74
2021/12/06 10:43:04;;;;;;;15.43;8.73;;;;;;;;;;7391849;19;20023;-74
2021/12/06 10:45:33;;;;;;;12.48;7.28;;;;;;;;;;7391403;19;20480;-75
2021/12/06 10:48:30;;;;;;;16.85;8.93;;;;;;;;;;7389666;19;20006;-74
2021/12/06 10:50:59;;;;;;;14.52;8.30;;;;;;;;;;7385736;19;20006;-75
2021/12/06 10:53:40;;;;;;;13.27;7.30;;;;;;;;;;7389412;19;20002;-74
2021/12/06 10:56:17;;;;;;;12.82;6.28;;;;;;;;;;7389982;19;20018;-74
2021/12/06 10:58:42;;;;;;;12.40;7.38;;;;;;;;;;7385323;19;20096;-75
2021/12/06 11:01:10;;;;;;;10.73;6.20;;;;;;;;;;7386233;19;19996;-75
2021/12/06 11:03:45;;;;;;;10.63;6.72;;;;;;;;;;7389200;19;20045;-74
2021/12/06 11:06:14;;;;;;;10.98;6.72;;;;;;;;;;7385170;19;20780;-75
2021/12/06 11:08:41;;;;;;;14.48;7.28;;;;;;;;;;7389237;19;20041;-75
2021/12/06 11:11:12;;;;;;;14.70;7.78;;;;;;;;;;7387818;19;20080;-75
2021/12/06 11:13:43;;;;;;;16.55;7.38;;;;;;;;;;7388199;19;20002;-75
2021/12/06 11:16:15;;;;;;;11.30;6.75;;;;;;;;;;7389905;19;20010;-75
2021/12/06 11:18:53;;;;;;;11.60;6.22;;;;;;;;;;7386743;19;20098;-74
2021/12/06 11:21:21;;;;;;;12.20;6.53;;;;;;;;;;7386961;19;20030;-74
2021/12/06 11:24:10;;;;;;;9.27;5.90;;;;;;;;;;7387165;19;20006;-75
2021/12/06 11:26:48;;;;;;;11.00;6.90;;;;;;;;;;7390420;19;20015;-75
2021/12/06 11:29:15;;;;;;;13.02;6.20;;;;;;;;;;7386473;19;20085;-75
2021/12/06 11:31:50;;;;;;;10.98;6.05;;;;;;;;;;7384542;19;20007;-75
2021/12/06 11:34:15;;;;;;;10.48;6.65;;;;;;;;;;7389270;19;20007;-75
2021/12/06 11:36:42;;;;;;;13.23;6.57;;;;;;;;;;7387705;19;20486;-75
2021/12/06 11:39:13;;;;;;;10.55;6.75;;;;;;;;;;7387624;19;20467;-75
2021/12/06 11:41:42;;;;;;;11.20;6.63;;;;;;;;;;7387156;19;20003;-74
2021/12/06 11:44:42;;;;;;;12.07;6.95;;;;;;;;;;7388302;19;20011;-74
2021/12/06 11:47:12;;;;;;;11.50;7.15;;;;;;;;;;7379148;19;20725;-74
2021/12/06 11:49:42;;;;;;;10.95;6.63;;;;;;;;;;7382884;19;20025;-74
2021/12/06 11:52:11;;;;;;;16.80;7.40;;;;;;;;;;7380829;19;19999;-74
2021/12/06 11:55:05;;;;;;;13.55;8.05;;;;;;;;;;7385923;19;20237;-74
2021/12/06 11:57:34;;;;;;;12.88;7.30;;;;;;;;;;7382523;19;20506;-74
2021/12/06 12:00:15;;;;;;;12.35;7.22;;;;;;;;;;7385637;19;20027;-74
2021/12/06 12:03:00;;;;;;;14.93;8.05;;;;;;;;;;7385172;19;20026;-74
2021/12/06 12:05:28;;;;;;;13.48;6.93;;;;;;;;;;7385548;19;20595;-74
2021/12/06 12:07:58;;;;;;;14.27;7.18;;;;;;;;;;7389993;19;20007;-73
2021/12/06 12:10:38;;;;;;;13.07;7.60;;;;;;;;;;7388108;19;20030;-74
2021/12/06 12:13:09;;;;;;;12.68;7.40;;;;;;;;;;7384881;19;20002;-73
2021/12/06 12:15:35;;;;;;;11.95;6.63;;;;;;;;;;7384596;19;20002;-74
2021/12/06 12:18:01;;;;;;;13.07;7.13;;;;;;;;;;7383318;19;19994;-74
2021/12/06 12:20:27;;;;;;;15.55;8.07;;;;;;;;;;7382411;19;20323;-74
2021/12/06 12:23:01;;;;;;;12.55;7.68;;;;;;;;;;7388959;19;20356;-73
2021/12/06 12:25:39;;;;;;;12.20;7.50;;;;;;;;;;7385048;19;20098;-73
2021/12/06 12:28:18;;;;;;;14.38;7.57;;;;;;;;;;7384191;19;20483;-74
2021/12/06 12:30:46;;;;;;;12.23;6.53;;;;;;;;;;7385663;19;20074;-73
2021/12/06 12:33:13;;;;;;;12.60;6.78;;;;;;;;;;7386399;19;20325;-73
2021/12/06 12:35:43;;;;;;;12.80;7.45;;;;;;;;;;7385263;19;20013;-73
2021/12/06 12:38:11;;;;;;;15.05;7.72;;;;;;;;;;7383928;19;20003;-73
2021/12/06 12:40:42;;;;;;;11.07;7.40;;;;;;;;;;7384953;19;20018;-73
2021/12/06 12:43:09;;;;;;;13.98;7.10;;;;;;;;;;7386465;19;20045;-73
2021/12/06 12:45:48;;;;;;;13.63;7.57;;;;;;;;;;7387198;19;20108;-72
2021/12/06 12:48:16;;;;;;;13.85;7.65;;;;;;;;;;7382744;19;20126;-72
2021/12/06 12:51:07;;;;;;;12.63;7.22;;;;;;;;;;7378981;19;20006;-73
2021/12/06 12:53:59;;;;;;;12.77;7.35;;;;;;;;;;7383847;19;20002;-73
2021/12/06 12:56:27;;;;;;;16.25;8.20;;;;;;;;;;7385362;19;20091;-73
2021/12/06 12:58:53;;;;;;;13.48;7.10;;;;;;;;;;7382089;19;20010;-73
2021/12/06 13:01:21;;;;;;;12.45;6.80;;;;;;;;;;7385265;19;20352;-73
2021/12/06 13:03:53;;;;;;;13.80;7.40;;;;;;;;;;7387295;19;20006;-73
2021/12/06 13:06:24;;;;;;;14.13;7.30;;;;;;;;;;7387667;19;20006;-73
2021/12/06 13:08:55;;;;;;;13.55;7.47;;;;;;;;;;7380776;19;20011;-73
2021/12/06 13:11:28;;;;;;;15.05;7.13;;;;;;;;;;7385618;19;20027;-72
2021/12/06 13:13:53;;;;;;;10.40;6.22;;;;;;;;;;7386253;19;19999;-72
2021/12/06 13:16:32;;;;;;;11.52;6.47;;;;;;;;;;7387166;19;19999;-73
2021/12/06 13:21:47;;;;;;;14.35;6.80;;;;;;;;;;7382443;19;20017;-73
2021/12/06 13:24:12;;;;;;;14.10;6.82;;;;;;;;;;7384979;19;20011;-73
2021/12/06 13:26:41;;;;;;;13.02;6.78;;;;;;;;;;7383855;19;20465;-72
2021/12/06 13:29:23;;;;;;;12.90;7.45;;;;;;;;;;7382188;19;20014;-72
2021/12/06 13:31:50;;;;;;;16.30;7.65;;;;;;;;;;7381175;19;20015;-73
2021/12/06 13:34:19;;;;;;;12.43;7.03;;;;;;;;;;7383477;19;20006;-73
2021/12/06 13:36:51;;;;;;;12.50;7.82;;;;;;;;;;7382596;19;20010;-72
2021/12/06 13:39:31;;;;;;;11.55;6.43;;;;;;;;;;7383482;19;20003;-72
2021/12/06 13:41:58;;;;;;;15.13;7.75;;;;;;;;;;7375575;19;20452;-72
2021/12/06 13:44:57;;;;;;;13.65;7.45;;;;;;;;;;7378205;19;19994;-73
2021/12/06 13:47:26;;;;;;;10.57;6.10;;;;;;;;;;7343113;19;20011;-72
2021/12/06 13:50:06;;;;;;;14.30;6.88;;;;;;;;;;7383348;19;20006;-72
2021/12/06 13:52:42;;;;;;;8.82;5.63;;;;;;;;;;7381712;19;20006;-72
2021/12/06 13:55:19;;;;;;;15.85;7.70;;;;;;;;;;7383563;19;20031;-73
2021/12/06 13:57:47;;;;;;;14.40;7.40;;;;;;;;;;7380563;19;20015;-72
2021/12/06 14:00:15;;;;;;;13.05;7.18;;;;;;;;;;7382276;19;20007;-72
2021/12/06 14:02:42;;;;;;;12.70;7.30;;;;;;;;;;7385294;19;20398;-72
2021/12/06 14:05:08;;;;;;;16.67;8.25;;;;;;;;;;7380845;19;20079;-72
2021/12/06 14:07:33;;;;;;;13.05;7.35;;;;;;;;;;7381596;19;20002;-72
2021/12/06 14:10:00;;;;;;;13.07;7.25;;;;;;;;;;7382285;19;20006;-72
2021/12/06 14:12:31;;;;;;;13.88;7.32;;;;;;;;;;7381232;19;20283;-72
2021/12/06 14:15:07;;;;;;;12.95;6.93;;;;;;;;;;7380783;19;20023;-73
2021/12/06 14:17:32;;;;;;;13.27;6.82;;;;;;;;;;7379027;19;20011;-74
2021/12/06 14:20:00;;;;;;;13.45;6.95;;;;;;;;;;7383937;19;20021;-74
2021/12/06 14:22:27;;;;;;;13.27;7.28;;;;;;;;;;7387015;19;20029;-73
2021/12/06 14:24:53;;;;;;;14.88;7.35;;;;;;;;;;7390421;19;20042;-73
2021/12/06 14:27:26;;;;;;;11.80;7.10;;;;;;;;;;7388889;19;20458;-73
2021/12/06 14:29:52;;;;;;;13.20;6.53;;;;;;;;;;7387114;19;20018;-73
2021/12/06 14:32:17;;;;;;;11.52;6.68;;;;;;;;;;7387115;19;20002;-73
2021/12/06 14:34:42;;;;;;;15.50;7.30;;;;;;;;;;7387301;19;20005;-72
2021/12/06 14:37:11;;;;;;;10.98;6.35;;;;;;;;;;7386243;19;20031;-72
2021/12/06 14:39:38;;;;;;;15.13;7.00;;;;;;;;;;7388931;19;20002;-72
2021/12/06 14:42:06;;;;;;;11.43;6.63;;;;;;;;;;7384688;19;20002;-73
2021/12/06 14:44:42;;;;;;;10.75;6.40;;;;;;;;;;7386868;19;20070;-73
2021/12/06 14:47:13;;;;;;;13.38;7.57;;;;;;;;;;7387224;19;20010;-73
2021/12/06 14:49:45;;;;;;;12.57;6.95;;;;;;;;;;7383613;19;20021;-73
2021/12/06 14:52:22;;;;;;;15.18;6.88;;;;;;;;;;7387708;19;20006;-73
2021/12/06 14:55:40;;;;;;;15.27;6.60;;;;;;;;;;7388733;19;20006;-73